createdAt,value
2017-09-24T00:00:28.557Z,0
2017-09-24T00:01:09.134Z,0
2017-09-24T00:02:04.531Z,0
2017-09-24T00:02:51.979Z,0
2017-09-24T00:03:32.552Z,0
2017-09-24T00:04:13.136Z,0
2017-09-24T00:04:53.724Z,0
2017-09-24T00:05:34.306Z,0
2017-09-24T00:06:14.884Z,0
2017-09-24T00:06:55.453Z,0
2017-09-24T00:07:36.032Z,0
2017-09-24T00:08:16.615Z,0
2017-09-24T00:08:57.194Z,0
2017-09-24T00:09:37.774Z,0
2017-09-24T00:10:18.347Z,0
2017-09-24T00:10:58.932Z,0
2017-09-24T00:11:39.506Z,0
2017-09-24T00:12:20.094Z,0
2017-09-24T00:13:00.675Z,0
2017-09-24T00:13:41.248Z,0
2017-09-24T00:14:21.829Z,0
2017-09-24T00:15:02.409Z,0
2017-09-24T00:15:42.985Z,0
2017-09-24T00:16:23.559Z,0
2017-09-24T00:17:04.148Z,0
2017-09-24T00:17:44.730Z,0
2017-09-24T00:18:25.300Z,0
2017-09-24T00:19:05.882Z,0
2017-09-24T00:19:46.461Z,0
2017-09-24T00:20:38.001Z,0
2017-09-24T00:21:18.583Z,0
2017-09-24T00:21:59.160Z,0
2017-09-24T00:22:39.744Z,0
2017-09-24T00:23:20.323Z,0
2017-09-24T00:24:00.901Z,0
2017-09-24T00:24:41.479Z,0
2017-09-24T00:27:14.696Z,0
2017-09-24T00:27:55.270Z,0
2017-09-24T00:28:35.851Z,0
2017-09-24T00:29:16.427Z,0
2017-09-24T00:29:57.004Z,0
2017-09-24T00:30:37.585Z,0
2017-09-24T00:31:18.165Z,0
2017-09-24T00:31:58.748Z,0
2017-09-24T00:32:39.328Z,0
2017-09-24T00:33:19.906Z,0
2017-09-24T00:34:00.485Z,0
2017-09-24T00:34:41.065Z,0
2017-09-24T00:35:21.640Z,0
2017-09-24T00:36:02.219Z,0
2017-09-24T00:36:42.801Z,0
2017-09-24T00:37:23.380Z,0
2017-09-24T00:38:03.961Z,0
2017-09-24T00:38:44.539Z,0
2017-09-24T00:39:25.121Z,0
2017-09-24T00:40:05.700Z,0
2017-09-24T00:40:46.263Z,0
2017-09-24T00:41:26.838Z,0
2017-09-24T00:42:07.416Z,0
2017-09-24T00:42:48.002Z,0
2017-09-24T00:43:28.580Z,0
2017-09-24T00:44:09.154Z,0
2017-09-24T00:44:49.741Z,0
2017-09-24T00:45:30.315Z,0
2017-09-24T00:46:10.897Z,0
2017-09-24T00:46:51.479Z,0
2017-09-24T00:47:32.066Z,0
2017-09-24T00:48:21.684Z,0
2017-09-24T00:49:02.272Z,0
2017-09-24T00:49:42.847Z,0
2017-09-24T00:50:23.428Z,0
2017-09-24T00:51:04.012Z,0
2017-09-24T00:51:44.590Z,0
2017-09-24T00:52:25.173Z,0
2017-09-24T00:53:05.739Z,0
2017-09-24T00:53:46.318Z,0
2017-09-24T00:54:26.898Z,0
2017-09-24T00:55:07.458Z,0
2017-09-24T00:55:48.039Z,0
2017-09-24T00:56:28.622Z,0
2017-09-24T00:57:09.195Z,0
2017-09-24T00:57:49.760Z,0
2017-09-24T00:58:30.350Z,0
2017-09-24T00:59:10.932Z,0
2017-09-24T00:59:51.511Z,0
2017-09-24T01:00:32.090Z,0
2017-09-24T01:01:12.668Z,0
2017-09-24T01:01:53.251Z,0
2017-09-24T01:02:33.831Z,0
2017-09-24T01:03:14.412Z,0
2017-09-24T01:03:54.994Z,0
2017-09-24T01:04:35.573Z,0
2017-09-24T01:05:16.179Z,0
2017-09-24T01:05:56.729Z,0
2017-09-24T01:06:37.303Z,0
2017-09-24T01:07:17.888Z,0
2017-09-24T01:07:58.455Z,0
2017-09-24T01:08:39.033Z,0
2017-09-24T01:09:19.619Z,0
2017-09-24T01:10:00.192Z,0
2017-09-24T01:10:40.764Z,0
2017-09-24T01:11:21.346Z,0
2017-09-24T01:12:01.919Z,0
2017-09-24T01:12:42.489Z,0
2017-09-24T01:13:23.065Z,0
2017-09-24T01:14:03.647Z,0
2017-09-24T01:14:44.226Z,0
2017-09-24T01:15:24.806Z,0
2017-09-24T01:16:05.376Z,0
2017-09-24T01:16:45.961Z,0
2017-09-24T01:17:26.541Z,0
2017-09-24T01:18:07.126Z,0
2017-09-24T01:18:47.706Z,0
2017-09-24T01:19:28.287Z,0
2017-09-24T01:20:08.858Z,0
2017-09-24T01:20:49.437Z,0
2017-09-24T01:21:30.019Z,0
2017-09-24T01:22:10.598Z,0
2017-09-24T01:22:51.314Z,0
2017-09-24T01:23:31.754Z,0
2017-09-24T01:24:12.339Z,0
2017-09-24T01:24:52.914Z,0
2017-09-24T01:25:33.478Z,0
2017-09-24T01:26:14.053Z,0
2017-09-24T01:26:54.633Z,0
2017-09-24T01:27:35.203Z,0
2017-09-24T01:28:15.781Z,0
2017-09-24T01:28:56.362Z,0
2017-09-24T01:29:36.944Z,0
2017-09-24T01:30:17.525Z,0
2017-09-24T01:30:58.108Z,0
2017-09-24T01:31:38.693Z,0
2017-09-24T01:32:19.279Z,0
2017-09-24T01:32:59.849Z,0
2017-09-24T01:33:40.432Z,0
2017-09-24T01:34:21.001Z,0
2017-09-24T01:35:01.585Z,0
2017-09-24T01:35:42.155Z,0
2017-09-24T01:36:22.739Z,0
2017-09-24T01:37:03.323Z,0
2017-09-24T01:37:43.891Z,0
2017-09-24T01:38:24.469Z,0
2017-09-24T01:39:05.040Z,0
2017-09-24T01:39:45.614Z,0
2017-09-24T01:40:26.188Z,0
2017-09-24T01:41:06.763Z,0
2017-09-24T01:41:47.351Z,0
2017-09-24T01:42:27.928Z,0
2017-09-24T01:43:08.501Z,0
2017-09-24T01:43:49.080Z,0
2017-09-24T01:44:29.666Z,0
2017-09-24T01:45:10.247Z,0
2017-09-24T01:45:50.821Z,0
2017-09-24T01:46:31.406Z,0
2017-09-24T01:47:11.965Z,0
2017-09-24T01:47:52.542Z,0
2017-09-24T01:48:33.115Z,0
2017-09-24T01:49:13.685Z,0
2017-09-24T01:50:20.978Z,0
2017-09-24T01:51:01.560Z,0
2017-09-24T01:51:42.145Z,0
2017-09-24T01:52:22.724Z,0
2017-09-24T01:53:03.301Z,0
2017-09-24T01:53:43.885Z,0
2017-09-24T01:54:24.459Z,0
2017-09-24T01:55:05.041Z,0
2017-09-24T01:55:45.618Z,0
2017-09-24T01:56:26.193Z,0
2017-09-24T01:57:06.770Z,0
2017-09-24T01:57:47.356Z,0
2017-09-24T01:58:27.926Z,0
2017-09-24T01:59:08.508Z,0
2017-09-24T02:00:03.839Z,0
2017-09-24T02:00:44.423Z,0
2017-09-24T02:01:25.005Z,0
2017-09-24T02:02:05.585Z,0
2017-09-24T02:02:46.167Z,0
2017-09-24T02:03:26.745Z,0
2017-09-24T02:04:07.327Z,0
2017-09-24T02:04:47.911Z,0
2017-09-24T02:05:28.486Z,0
2017-09-24T02:06:09.060Z,0
2017-09-24T02:06:49.637Z,0
2017-09-24T02:07:30.214Z,0
2017-09-24T02:08:10.798Z,0
2017-09-24T02:08:51.375Z,0
2017-09-24T02:09:31.964Z,0
2017-09-24T02:10:12.543Z,0
2017-09-24T02:10:53.124Z,0
2017-09-24T02:11:33.705Z,0
2017-09-24T02:12:14.281Z,0
2017-09-24T02:12:54.856Z,0
2017-09-24T02:13:35.438Z,0
2017-09-24T02:14:16.022Z,0
2017-09-24T02:14:56.598Z,0
2017-09-24T02:15:37.181Z,0
2017-09-24T02:16:17.756Z,0
2017-09-24T02:16:58.341Z,0
2017-09-24T02:17:38.927Z,0
2017-09-24T02:18:19.511Z,0
2017-09-24T02:19:00.092Z,0
2017-09-24T02:19:40.664Z,0
2017-09-24T02:20:21.234Z,0
2017-09-24T02:21:01.815Z,0
2017-09-24T02:21:42.389Z,0
2017-09-24T02:22:23.004Z,0
2017-09-24T02:23:03.553Z,0
2017-09-24T02:24:02.886Z,0
2017-09-24T02:24:43.463Z,0
2017-09-24T02:25:24.049Z,0
2017-09-24T02:26:04.627Z,0
2017-09-24T02:26:45.204Z,0
2017-09-24T02:27:25.785Z,0
2017-09-24T02:28:06.370Z,0
2017-09-24T02:28:46.949Z,0
2017-09-24T02:29:27.537Z,0
2017-09-24T02:30:08.111Z,0
2017-09-24T02:30:48.688Z,0
2017-09-24T02:31:29.266Z,0
2017-09-24T02:32:09.843Z,0
2017-09-24T02:32:50.424Z,0
2017-09-24T02:33:31.011Z,0
2017-09-24T02:34:11.581Z,0
2017-09-24T02:34:52.153Z,0
2017-09-24T02:35:32.734Z,0
2017-09-24T02:36:13.317Z,0
2017-09-24T02:36:53.897Z,0
2017-09-24T02:37:34.468Z,0
2017-09-24T02:38:15.040Z,0
2017-09-24T02:38:55.615Z,0
2017-09-24T02:39:36.193Z,0
2017-09-24T02:40:16.771Z,0
2017-09-24T02:40:57.356Z,0
2017-09-24T02:41:37.939Z,0
2017-09-24T02:42:18.523Z,0
2017-09-24T02:42:59.100Z,0
2017-09-24T02:43:39.686Z,0
2017-09-24T02:44:20.272Z,0
2017-09-24T02:45:00.854Z,0
2017-09-24T02:45:41.433Z,0
2017-09-24T02:46:22.017Z,0
2017-09-24T02:47:02.589Z,0
2017-09-24T02:47:43.162Z,0
2017-09-24T02:48:23.747Z,0
2017-09-24T02:49:04.329Z,0
2017-09-24T02:49:44.907Z,0
2017-09-24T02:50:25.489Z,0
2017-09-24T02:51:06.070Z,0
2017-09-24T02:51:46.655Z,0
2017-09-24T02:52:27.234Z,0
2017-09-24T02:53:07.818Z,0
2017-09-24T02:53:48.398Z,0
2017-09-24T02:54:28.975Z,0
2017-09-24T02:55:09.558Z,0
2017-09-24T02:55:50.137Z,0
2017-09-24T02:56:30.716Z,0
2017-09-24T02:57:11.294Z,0
2017-09-24T02:57:51.875Z,0
2017-09-24T02:58:32.451Z,0
2017-09-24T02:59:13.026Z,0
2017-09-24T02:59:53.612Z,0
2017-09-24T03:00:34.197Z,0
2017-09-24T03:01:14.796Z,0
2017-09-24T03:01:55.379Z,0
2017-09-24T03:02:35.956Z,0
2017-09-24T03:03:16.531Z,0
2017-09-24T03:03:57.123Z,0
2017-09-24T03:04:37.701Z,0
2017-09-24T03:05:18.281Z,0
2017-09-24T03:05:58.859Z,0
2017-09-24T03:06:39.439Z,0
2017-09-24T03:08:57.399Z,0
2017-09-24T03:09:37.974Z,0
2017-09-24T03:10:18.549Z,0
2017-09-24T03:10:59.130Z,0
2017-09-24T03:13:32.287Z,0
2017-09-24T03:14:12.865Z,0
2017-09-24T03:14:53.443Z,0
2017-09-24T03:15:34.023Z,0
2017-09-24T03:16:14.622Z,0
2017-09-24T03:16:55.173Z,0
2017-09-24T03:17:35.748Z,0
2017-09-24T03:18:16.316Z,0
2017-09-24T03:18:56.895Z,0
2017-09-24T03:19:37.473Z,0
2017-09-24T03:20:18.044Z,0
2017-09-24T03:20:58.619Z,0
2017-09-24T03:21:39.195Z,0
2017-09-24T03:22:19.767Z,0
2017-09-24T03:23:00.347Z,0
2017-09-24T03:23:40.930Z,0
2017-09-24T03:24:21.504Z,0
2017-09-24T03:25:02.085Z,0
2017-09-24T03:25:42.665Z,0
2017-09-24T03:26:23.250Z,0
2017-09-24T03:27:03.820Z,0
2017-09-24T03:27:44.397Z,0
2017-09-24T03:28:24.977Z,0
2017-09-24T03:29:05.554Z,0
2017-09-24T03:29:46.134Z,0
2017-09-24T03:30:26.719Z,0
2017-09-24T03:31:07.305Z,0
2017-09-24T03:31:47.881Z,0
2017-09-24T03:32:28.468Z,0
2017-09-24T03:33:09.046Z,0
2017-09-24T03:33:49.618Z,0
2017-09-24T03:34:30.203Z,0
2017-09-24T03:35:10.780Z,0
2017-09-24T03:35:51.351Z,0
2017-09-24T03:36:31.932Z,0
2017-09-24T03:37:12.520Z,0
2017-09-24T03:37:53.093Z,0
2017-09-24T03:38:33.680Z,0
2017-09-24T03:39:14.257Z,0
2017-09-24T03:39:54.834Z,0
2017-09-24T03:40:35.417Z,0
2017-09-24T03:41:15.997Z,0
2017-09-24T03:41:56.570Z,0
2017-09-24T03:42:37.145Z,0
2017-09-24T03:43:17.729Z,0
2017-09-24T03:43:58.296Z,0
2017-09-24T03:44:38.866Z,0
2017-09-24T03:45:19.452Z,0
2017-09-24T03:46:00.032Z,0
2017-09-24T03:46:40.605Z,0
2017-09-24T03:48:38.349Z,0
2017-09-24T03:49:18.937Z,0
2017-09-24T03:49:59.511Z,0
2017-09-24T03:50:40.090Z,0
2017-09-24T03:51:20.676Z,0
2017-09-24T03:52:01.254Z,0
2017-09-24T03:52:41.826Z,0
2017-09-24T03:53:22.402Z,0
2017-09-24T03:54:02.974Z,0
2017-09-24T03:54:43.551Z,0
2017-09-24T03:55:24.136Z,0
2017-09-24T03:56:04.713Z,0
2017-09-24T03:56:45.292Z,0
2017-09-24T03:57:25.863Z,0
2017-09-24T03:58:06.451Z,0
2017-09-24T03:58:47.025Z,0
2017-09-24T03:59:27.602Z,0
2017-09-24T04:00:08.181Z,0
2017-09-24T04:00:48.756Z,0
2017-09-24T04:01:29.329Z,0
2017-09-24T04:02:09.914Z,0
2017-09-24T04:02:50.494Z,0
2017-09-24T04:03:31.070Z,0
2017-09-24T04:04:11.630Z,0
2017-09-24T04:04:52.204Z,0
2017-09-24T04:05:32.785Z,0
2017-09-24T04:06:13.359Z,0
2017-09-24T04:06:53.934Z,0
2017-09-24T04:07:34.522Z,0
2017-09-24T04:08:15.093Z,0
2017-09-24T04:08:55.664Z,0
2017-09-24T04:09:36.246Z,0
2017-09-24T04:10:16.817Z,0
2017-09-24T04:10:57.393Z,0
2017-09-24T04:11:37.974Z,0
2017-09-24T04:12:18.547Z,0
2017-09-24T04:12:59.127Z,0
2017-09-24T04:13:39.706Z,0
2017-09-24T04:14:20.279Z,0
2017-09-24T04:15:00.856Z,0
2017-09-24T04:15:41.435Z,0
2017-09-24T04:16:22.007Z,0
2017-09-24T04:17:02.590Z,0
2017-09-24T04:17:43.169Z,0
2017-09-24T04:18:23.735Z,0
2017-09-24T04:19:04.321Z,0
2017-09-24T04:19:44.893Z,0
2017-09-24T04:20:25.471Z,0
2017-09-24T04:21:06.048Z,0
2017-09-24T04:21:46.632Z,0
2017-09-24T04:22:27.209Z,0
2017-09-24T04:23:07.798Z,0
2017-09-24T04:23:48.373Z,0
2017-09-24T04:24:28.946Z,0
2017-09-24T04:25:09.525Z,0
2017-09-24T04:25:50.091Z,0
2017-09-24T04:26:30.679Z,0
2017-09-24T04:27:11.261Z,0
2017-09-24T04:27:51.831Z,0
2017-09-24T04:28:32.431Z,0
2017-09-24T04:29:13.010Z,0
2017-09-24T04:29:53.584Z,0
2017-09-24T04:30:34.164Z,0
2017-09-24T04:31:14.747Z,0
2017-09-24T04:31:55.326Z,0
2017-09-24T04:32:35.908Z,0
2017-09-24T04:33:16.492Z,0
2017-09-24T04:33:57.062Z,0
2017-09-24T04:34:37.647Z,0
2017-09-24T04:35:18.224Z,4
2017-09-24T04:35:58.807Z,4
2017-09-24T04:36:39.383Z,4
2017-09-24T04:37:19.963Z,0
2017-09-24T04:38:00.546Z,0
2017-09-24T04:38:41.139Z,4
2017-09-24T04:39:21.717Z,4
2017-09-24T04:40:02.300Z,4
2017-09-24T04:40:42.851Z,4
2017-09-24T04:41:23.505Z,4
2017-09-24T04:42:04.078Z,8
2017-09-24T04:42:44.659Z,8
2017-09-24T04:43:25.240Z,8
2017-09-24T04:44:05.819Z,8
2017-09-24T04:44:46.388Z,8
2017-09-24T04:45:26.954Z,8
2017-09-24T04:46:07.541Z,8
2017-09-24T04:46:48.123Z,16
2017-09-24T04:47:28.706Z,16
2017-09-24T04:48:09.281Z,20
2017-09-24T04:48:49.860Z,16
2017-09-24T04:49:30.453Z,20
2017-09-24T04:50:11.051Z,24
2017-09-24T04:50:51.638Z,28
2017-09-24T04:51:32.213Z,32
2017-09-24T04:52:12.783Z,36
2017-09-24T04:52:53.376Z,40
2017-09-24T04:53:33.960Z,44
2017-09-24T04:54:14.533Z,48
2017-09-24T04:54:55.103Z,56
2017-09-24T04:55:35.685Z,60
2017-09-24T04:56:16.266Z,68
2017-09-24T04:56:56.854Z,76
2017-09-24T04:57:37.427Z,80
2017-09-24T04:58:18.007Z,88
2017-09-24T04:58:58.598Z,100
2017-09-24T04:59:39.190Z,108
2017-09-24T05:00:19.778Z,116
2017-09-24T05:01:00.355Z,128
2017-09-24T05:01:40.927Z,136
2017-09-24T05:02:21.506Z,152
2017-09-24T05:03:02.086Z,160
2017-09-24T05:03:42.774Z,168
2017-09-24T05:04:23.306Z,184
2017-09-24T05:05:03.896Z,196
2017-09-24T05:05:44.469Z,212
2017-09-24T05:06:25.056Z,228
2017-09-24T05:07:05.614Z,244
2017-09-24T05:07:46.213Z,260
2017-09-24T05:08:26.812Z,284
2017-09-24T05:09:07.392Z,304
2017-09-24T05:09:47.963Z,328
2017-09-24T05:10:28.527Z,356
2017-09-24T05:11:09.108Z,384
2017-09-24T05:11:49.694Z,412
2017-09-24T05:12:30.271Z,444
2017-09-24T05:13:10.849Z,476
2017-09-24T05:13:51.418Z,508
2017-09-24T05:14:31.994Z,544
2017-09-24T05:15:12.583Z,576
2017-09-24T05:15:53.143Z,616
2017-09-24T05:16:33.711Z,664
2017-09-24T05:17:14.280Z,716
2017-09-24T05:17:54.970Z,768
2017-09-24T05:18:35.540Z,820
2017-09-24T05:19:16.102Z,872
2017-09-24T05:19:56.814Z,928
2017-09-24T05:20:37.399Z,988
2017-09-24T05:21:17.991Z,1052
2017-09-24T05:21:58.512Z,1116
2017-09-24T05:22:39.078Z,1188
2017-09-24T05:23:19.642Z,1260
2017-09-24T05:24:00.203Z,1332
2017-09-24T05:24:41.742Z,1416
2017-09-24T05:25:22.383Z,1504
2017-09-24T05:26:03.018Z,1584
2017-09-24T05:26:43.623Z,1664
2017-09-24T05:27:24.196Z,1732
2017-09-24T05:28:04.783Z,1792
2017-09-24T05:28:45.352Z,1836
2017-09-24T05:29:25.924Z,1872
2017-09-24T05:30:06.538Z,1908
2017-09-24T05:30:47.113Z,1940
2017-09-24T05:31:27.687Z,1948
2017-09-24T05:32:08.240Z,1956
2017-09-24T05:32:48.797Z,1968
2017-09-24T05:33:31.304Z,1984
2017-09-24T05:34:11.829Z,2012
2017-09-24T05:34:52.492Z,2052
2017-09-24T05:35:33.211Z,2108
2017-09-24T05:36:13.781Z,2180
2017-09-24T05:36:54.411Z,2264
2017-09-24T05:37:35.593Z,2364
2017-09-24T05:38:16.173Z,2460
2017-09-24T05:38:59.724Z,2556
2017-09-24T05:39:40.254Z,2644
2017-09-24T05:40:24.354Z,2720
2017-09-24T05:41:04.946Z,2800
2017-09-24T05:41:45.528Z,2892
2017-09-24T05:42:26.846Z,2996
2017-09-24T05:43:07.417Z,3080
2017-09-24T05:43:48.009Z,3180
2017-09-24T05:44:28.554Z,3296
2017-09-24T05:45:09.132Z,3400
2017-09-24T05:45:49.707Z,3500
2017-09-24T05:46:30.276Z,3612
2017-09-24T05:47:10.834Z,3712
2017-09-24T05:47:51.400Z,3816
2017-09-24T05:48:32.000Z,3952
2017-09-24T05:49:12.540Z,4088
2017-09-24T05:49:53.114Z,4240
2017-09-24T05:50:34.061Z,4360
2017-09-24T05:51:14.623Z,4436
2017-09-24T05:51:55.217Z,4496
2017-09-24T05:52:35.795Z,4572
2017-09-24T05:53:16.376Z,4696
2017-09-24T05:53:58.712Z,4848
2017-09-24T05:54:39.313Z,4948
2017-09-24T05:55:20.859Z,5048
2017-09-24T05:56:01.499Z,5136
2017-09-24T05:56:42.060Z,5228
2017-09-24T05:57:24.333Z,5320
2017-09-24T05:58:04.905Z,5352
2017-09-24T05:58:45.492Z,5412
2017-09-24T05:59:26.032Z,5424
2017-09-24T06:00:06.606Z,5356
2017-09-24T06:00:47.151Z,5300
2017-09-24T06:01:27.719Z,5284
2017-09-24T06:02:08.310Z,5264
2017-09-24T06:02:48.874Z,5240
2017-09-24T06:03:29.451Z,5196
2017-09-24T06:04:10.049Z,5180
2017-09-24T06:04:50.591Z,5216
2017-09-24T06:05:31.182Z,5268
2017-09-24T06:06:11.744Z,5296
2017-09-24T06:06:52.315Z,5396
2017-09-24T06:07:33.731Z,5552
2017-09-24T06:08:14.283Z,5704
2017-09-24T06:08:54.841Z,5852
2017-09-24T06:09:35.410Z,5996
2017-09-24T06:10:15.966Z,6172
2017-09-24T06:10:56.539Z,6372
2017-09-24T06:11:37.094Z,6532
2017-09-24T06:12:17.654Z,6684
2017-09-24T06:12:58.219Z,6860
2017-09-24T06:13:38.788Z,7044
2017-09-24T06:14:19.366Z,7244
2017-09-24T06:14:59.942Z,7464
2017-09-24T06:15:40.492Z,7700
2017-09-24T06:16:21.053Z,7892
2017-09-24T06:17:01.596Z,8024
2017-09-24T06:17:42.176Z,8172
2017-09-24T06:18:22.853Z,8360
2017-09-24T06:19:03.430Z,8560
2017-09-24T06:19:44.002Z,8764
2017-09-24T06:20:24.571Z,8924
2017-09-24T06:21:05.131Z,8996
2017-09-24T06:21:45.693Z,8980
2017-09-24T06:22:26.270Z,9000
2017-09-24T06:23:06.840Z,9056
2017-09-24T06:23:47.599Z,9204
2017-09-24T06:24:28.152Z,9416
2017-09-24T06:25:10.495Z,9652
2017-09-24T06:25:51.991Z,9912
2017-09-24T06:26:32.575Z,10212
2017-09-24T06:27:13.132Z,10580
2017-09-24T06:27:53.718Z,10840
2017-09-24T06:28:34.388Z,10944
2017-09-24T06:29:14.970Z,10996
2017-09-24T06:29:55.552Z,11048
2017-09-24T06:30:36.131Z,11104
2017-09-24T06:31:16.707Z,11188
2017-09-24T06:31:57.286Z,11364
2017-09-24T06:32:37.860Z,11528
2017-09-24T06:33:18.795Z,11756
2017-09-24T06:33:59.241Z,11980
2017-09-24T06:34:39.937Z,12900
2017-09-24T06:35:20.630Z,14224
2017-09-24T06:36:01.249Z,15936
2017-09-24T06:36:41.919Z,16928
2017-09-24T06:37:23.143Z,17312
2017-09-24T06:38:03.842Z,17760
2017-09-24T06:38:46.070Z,18592
2017-09-24T06:39:26.763Z,19008
2017-09-24T06:40:07.611Z,19168
2017-09-24T06:40:48.347Z,19104
2017-09-24T06:41:28.931Z,19072
2017-09-24T06:42:09.612Z,19360
2017-09-24T06:42:50.395Z,19808
2017-09-24T06:43:31.398Z,20384
2017-09-24T06:44:12.139Z,21056
2017-09-24T06:44:52.988Z,21536
2017-09-24T06:45:36.356Z,21600
2017-09-24T06:46:17.086Z,21536
2017-09-24T06:46:57.673Z,21472
2017-09-24T06:47:38.237Z,21888
2017-09-24T06:48:18.810Z,22208
2017-09-24T06:48:59.383Z,22400
2017-09-24T06:49:40.853Z,22528
2017-09-24T06:50:21.471Z,22432
2017-09-24T06:51:02.062Z,22496
2017-09-24T06:51:42.965Z,22688
2017-09-24T06:52:23.906Z,22976
2017-09-24T06:53:04.428Z,23072
2017-09-24T06:53:45.010Z,22656
2017-09-24T06:54:25.919Z,22336
2017-09-24T06:55:06.599Z,22688
2017-09-24T06:55:47.726Z,23616
2017-09-24T06:56:28.390Z,24480
2017-09-24T06:57:08.961Z,24576
2017-09-24T06:57:49.544Z,24384
2017-09-24T06:58:30.121Z,24224
2017-09-24T06:59:11.344Z,24384
2017-09-24T06:59:52.459Z,24608
2017-09-24T07:00:33.620Z,24704
2017-09-24T07:01:14.190Z,24896
2017-09-24T07:01:54.908Z,25184
2017-09-24T07:02:35.414Z,25504
2017-09-24T07:03:15.976Z,25760
2017-09-24T07:03:57.105Z,26080
2017-09-24T07:04:37.685Z,26528
2017-09-24T07:05:18.257Z,27200
2017-09-24T07:05:59.721Z,27616
2017-09-24T07:06:40.332Z,27936
2017-09-24T07:07:20.984Z,27936
2017-09-24T07:08:01.607Z,28000
2017-09-24T07:08:42.213Z,27936
2017-09-24T07:09:22.805Z,27712
2017-09-24T07:10:03.447Z,27552
2017-09-24T07:10:44.032Z,27552
2017-09-24T07:11:25.114Z,27552
2017-09-24T07:12:06.357Z,27648
2017-09-24T07:12:48.757Z,27584
2017-09-24T07:13:30.028Z,27456
2017-09-24T07:14:12.425Z,27584
2017-09-24T07:14:56.329Z,27520
2017-09-24T07:15:41.028Z,28096
2017-09-24T07:16:25.362Z,28224
2017-09-24T07:17:07.254Z,28032
2017-09-24T07:17:49.174Z,27968
2017-09-24T07:18:29.869Z,28032
2017-09-24T07:19:10.454Z,28512
2017-09-24T07:19:52.028Z,29088
2017-09-24T07:20:33.710Z,29696
2017-09-24T07:21:14.720Z,30048
2017-09-24T07:21:55.753Z,30112
2017-09-24T07:22:36.757Z,29440
2017-09-24T07:23:18.418Z,28896
2017-09-24T07:23:59.549Z,28672
2017-09-24T07:24:42.569Z,29120
2017-09-24T07:25:24.492Z,30112
2017-09-24T07:26:05.533Z,31328
2017-09-24T07:26:46.449Z,32192
2017-09-24T07:27:28.426Z,32512
2017-09-24T07:28:09.406Z,31968
2017-09-24T07:28:51.135Z,31360
2017-09-24T07:29:32.704Z,31360
2017-09-24T07:30:13.627Z,32064
2017-09-24T07:30:54.511Z,33152
2017-09-24T07:31:36.012Z,33600
2017-09-24T07:32:17.916Z,33408
2017-09-24T07:32:59.460Z,32512
2017-09-24T07:33:40.421Z,31648
2017-09-24T07:34:21.342Z,31936
2017-09-24T07:35:02.344Z,32832
2017-09-24T07:35:44.232Z,34144
2017-09-24T07:36:25.332Z,35296
2017-09-24T07:37:06.278Z,36352
2017-09-24T07:37:47.151Z,37024
2017-09-24T07:38:28.041Z,37536
2017-09-24T07:39:08.812Z,38080
2017-09-24T07:39:51.653Z,37792
2017-09-24T07:40:33.039Z,37952
2017-09-24T07:41:13.897Z,38208
2017-09-24T07:41:54.651Z,38496
2017-09-24T07:42:35.442Z,38208
2017-09-24T07:43:16.963Z,38400
2017-09-24T07:43:57.769Z,38816
2017-09-24T07:44:38.513Z,39136
2017-09-24T07:45:19.393Z,39392
2017-09-24T07:46:00.854Z,39616
2017-09-24T07:46:41.627Z,39264
2017-09-24T07:47:22.298Z,38944
2017-09-24T07:48:02.988Z,38944
2017-09-24T07:48:44.152Z,39168
2017-09-24T07:49:25.608Z,39616
2017-09-24T07:50:06.747Z,39872
2017-09-24T07:50:52.082Z,40384
2017-09-24T07:51:32.849Z,40736
2017-09-24T07:52:13.505Z,41248
2017-09-24T07:52:54.949Z,41728
2017-09-24T07:53:35.527Z,41472
2017-09-24T07:54:16.363Z,40960
2017-09-24T07:54:56.935Z,40480
2017-09-24T07:55:39.519Z,40224
2017-09-24T07:56:20.100Z,40224
2017-09-24T07:57:00.921Z,40960
2017-09-24T07:57:41.773Z,41536
2017-09-24T07:58:22.732Z,41824
2017-09-24T07:59:03.513Z,41664
2017-09-24T07:59:44.353Z,41024
2017-09-24T08:00:25.345Z,40768
2017-09-24T08:01:06.308Z,40480
2017-09-24T08:01:48.385Z,41152
2017-09-24T08:02:28.911Z,41824
2017-09-24T08:03:09.987Z,42592
2017-09-24T08:03:50.840Z,43232
2017-09-24T08:04:31.523Z,44064
2017-09-24T08:05:15.051Z,45088
2017-09-24T08:05:55.734Z,45504
2017-09-24T08:06:36.373Z,45856
2017-09-24T08:07:17.617Z,46528
2017-09-24T08:07:57.646Z,47104
2017-09-24T08:08:38.261Z,47552
2017-09-24T08:09:19.017Z,48032
2017-09-24T08:09:59.611Z,47616
2017-09-24T08:10:41.794Z,46720
2017-09-24T08:11:26.249Z,46528
2017-09-24T08:12:06.809Z,46688
2017-09-24T08:12:47.748Z,47456
2017-09-24T08:13:28.213Z,47584
2017-09-24T08:14:09.613Z,48128
2017-09-24T08:14:50.339Z,47584
2017-09-24T08:15:30.907Z,46848
2017-09-24T08:16:11.605Z,46080
2017-09-24T08:16:52.195Z,45792
2017-09-24T08:17:32.782Z,45888
2017-09-24T08:18:13.365Z,45824
2017-09-24T08:18:54.650Z,46784
2017-09-24T08:19:35.495Z,47712
2017-09-24T08:20:16.208Z,48448
2017-09-24T08:20:56.736Z,49344
2017-09-24T08:21:37.427Z,49760
2017-09-24T08:22:18.286Z,49600
2017-09-24T08:22:59.071Z,49120
2017-09-24T08:23:39.539Z,48576
2017-09-24T08:24:20.130Z,48352
2017-09-24T08:25:00.726Z,48192
2017-09-24T08:25:41.333Z,48544
2017-09-24T08:26:21.933Z,49088
2017-09-24T08:27:04.265Z,50048
2017-09-24T08:27:45.555Z,50624
2017-09-24T08:28:27.406Z,51296
2017-09-24T08:29:08.102Z,51232
2017-09-24T08:29:48.688Z,50912
2017-09-24T08:30:29.284Z,50976
2017-09-24T08:31:09.873Z,51328
2017-09-24T08:31:50.461Z,51936
2017-09-24T08:32:31.079Z,52544
2017-09-24T08:33:11.666Z,52608
2017-09-24T08:33:52.270Z,53152
2017-09-24T08:34:32.858Z,53504
2017-09-24T08:35:13.455Z,53312
2017-09-24T08:35:54.061Z,52096
2017-09-24T08:36:34.633Z,50912
2017-09-24T08:37:15.251Z,49632
2017-09-24T08:37:55.863Z,48864
2017-09-24T08:38:36.460Z,48544
2017-09-24T08:39:17.046Z,48864
2017-09-24T08:39:57.643Z,49664
2017-09-24T08:40:38.230Z,51616
2017-09-24T08:41:19.850Z,52928
2017-09-24T08:42:00.442Z,53984
2017-09-24T08:42:41.039Z,55328
2017-09-24T08:43:21.749Z,55488
2017-09-24T08:44:02.410Z,55264
2017-09-24T08:44:42.989Z,55072
2017-09-24T08:45:23.587Z,54752
2017-09-24T08:46:04.181Z,54624
2017-09-24T08:46:44.775Z,55424
2017-09-24T08:47:25.922Z,55616
2017-09-24T08:48:06.531Z,55776
2017-09-24T08:48:47.118Z,54656
2017-09-24T08:49:27.722Z,54080
2017-09-24T08:50:08.306Z,53696
2017-09-24T08:50:48.904Z,55040
2017-09-24T08:51:29.497Z,56352
2017-09-24T08:52:10.096Z,57344
2017-09-24T08:52:50.674Z,57984
2017-09-24T08:53:31.276Z,57696
2017-09-24T08:54:11.858Z,56832
2017-09-24T08:54:52.458Z,55232
2017-09-24T08:55:33.058Z,53984
2017-09-24T08:56:13.641Z,52000
2017-09-24T08:56:54.233Z,51232
2017-09-24T08:57:34.821Z,51968
2017-09-24T08:58:15.417Z,53760
2017-09-24T08:58:56.001Z,56608
2017-09-24T08:59:36.592Z,58912
2017-09-24T09:00:17.174Z,59424
2017-09-24T09:00:57.763Z,59008
2017-09-24T09:01:38.350Z,57568
2017-09-24T09:02:18.929Z,55712
2017-09-24T09:02:59.518Z,54240
2017-09-24T09:03:40.112Z,53696
2017-09-24T09:04:20.702Z,53312
2017-09-24T09:05:01.291Z,53920
2017-09-24T09:05:41.871Z,54944
2017-09-24T09:06:22.460Z,56864
2017-09-24T09:07:03.052Z,58688
2017-09-24T09:07:43.645Z,59296
2017-09-24T09:08:24.240Z,60032
2017-09-24T09:09:04.837Z,60032
2017-09-24T09:09:45.429Z,59776
2017-09-24T09:10:26.022Z,59360
2017-09-24T09:11:06.605Z,59744
2017-09-24T09:11:47.196Z,59904
2017-09-24T09:12:27.803Z,59584
2017-09-24T09:13:08.375Z,59360
2017-09-24T09:13:48.989Z,59872
2017-09-24T09:14:29.576Z,60096
2017-09-24T09:15:10.175Z,60288
2017-09-24T09:15:50.764Z,61280
2017-09-24T09:16:31.357Z,62080
2017-09-24T09:17:11.953Z,62592
2017-09-24T09:17:52.551Z,62624
2017-09-24T09:18:33.137Z,63008
2017-09-24T09:19:13.719Z,63232
2017-09-24T09:19:54.310Z,63712
2017-09-24T09:20:34.912Z,63552
2017-09-24T09:21:15.501Z,62816
2017-09-24T09:21:56.075Z,62112
2017-09-24T09:22:36.672Z,61088
2017-09-24T09:23:17.268Z,60416
2017-09-24T09:23:57.869Z,59872
2017-09-24T09:24:38.459Z,59680
2017-09-24T09:25:19.049Z,60640
2017-09-24T09:25:59.647Z,61760
2017-09-24T09:26:40.228Z,62560
2017-09-24T09:27:20.839Z,64096
2017-09-24T09:28:01.429Z,65152
2017-09-24T09:28:42.003Z,65952
2017-09-24T09:29:22.607Z,65824
2017-09-24T09:30:03.217Z,64256
2017-09-24T09:30:43.803Z,62976
2017-09-24T09:31:24.389Z,62112
2017-09-24T09:32:04.980Z,61824
2017-09-24T09:32:45.580Z,61728
2017-09-24T09:33:26.178Z,62048